sensor_id;sensor_type;location;lat;lon;timestamp;noise_LAeq;noise_LA_min;noise_LA_max;noise_LA01;noise_LA95
81493;Laerm;70900;51.798;10.954;2024-02-16T00:02:03;27.75;25.21;41.36;;
81493;Laerm;70900;51.798;10.954;2024-02-16T00:04:29;26.80;23.91;36.18;;
81493;Laerm;70900;51.798;10.954;2024-02-16T00:06:54;45.02;23.90;61.43;;
81493;Laerm;70900;51.798;10.954;2024-02-16T00:09:20;25.57;23.65;32.05;;
81493;Laerm;70900;51.798;10.954;2024-02-16T00:11:45;33.71;23.94;47.78;;
81493;Laerm;70900;51.798;10.954;2024-02-16T00:14:12;27.23;23.82;42.63;;
81493;Laerm;70900;51.798;10.954;2024-02-16T00:16:37;29.67;24.97;41.42;;
81493;Laerm;70900;51.798;10.954;2024-02-16T00:19:03;27.20;23.51;40.88;;
81493;Laerm;70900;51.798;10.954;2024-02-16T00:21:28;29.35;25.16;43.68;;
81493;Laerm;70900;51.798;10.954;2024-02-16T00:23:54;39.06;24.39;58.22;;
81493;Laerm;70900;51.798;10.954;2024-02-16T00:26:19;38.44;25.51;56.89;;
81493;Laerm;70900;51.798;10.954;2024-02-16T00:28:46;33.38;25.81;53.78;;
81493;Laerm;70900;51.798;10.954;2024-02-16T00:31:11;30.29;25.03;49.81;;
81493;Laerm;70900;51.798;10.954;2024-02-16T00:33:37;26.89;23.83;44.18;;
81493;Laerm;70900;51.798;10.954;2024-02-16T00:36:02;28.72;24.26;44.77;;
81493;Laerm;70900;51.798;10.954;2024-02-16T00:38:27;37.50;25.95;58.26;;
81493;Laerm;70900;51.798;10.954;2024-02-16T00:40:53;32.54;25.74;50.40;;
81493;Laerm;70900;51.798;10.954;2024-02-16T00:43:18;38.31;26.04;52.15;;
81493;Laerm;70900;51.798;10.954;2024-02-16T00:45:43;32.05;27.42;38.98;;
81493;Laerm;70900;51.798;10.954;2024-02-16T00:48:10;32.63;27.12;50.13;;
81493;Laerm;70900;51.798;10.954;2024-02-16T00:50:35;38.11;28.47;50.18;;
81493;Laerm;70900;51.798;10.954;2024-02-16T00:53:01;40.76;31.31;50.30;;
81493;Laerm;70900;51.798;10.954;2024-02-16T00:55:26;30.48;25.72;46.38;;
81493;Laerm;70900;51.798;10.954;2024-02-16T00:57:51;29.85;25.18;46.85;;
81493;Laerm;70900;51.798;10.954;2024-02-16T01:00:17;32.48;26.00;41.71;;
81493;Laerm;70900;51.798;10.954;2024-02-16T01:02:44;27.68;24.75;35.64;;
81493;Laerm;70900;51.798;10.954;2024-02-16T01:05:10;34.40;25.09;49.87;;
81493;Laerm;70900;51.798;10.954;2024-02-16T01:07:35;33.02;26.59;46.21;;
81493;Laerm;70900;51.798;10.954;2024-02-16T01:10:01;30.37;25.24;40.37;;
81493;Laerm;70900;51.798;10.954;2024-02-16T01:12:28;38.16;29.08;52.75;;
81493;Laerm;70900;51.798;10.954;2024-02-16T01:14:55;32.74;26.07;42.02;;
81493;Laerm;70900;51.798;10.954;2024-02-16T01:17:21;34.45;27.83;48.75;;
81493;Laerm;70900;51.798;10.954;2024-02-16T01:19:46;33.58;29.18;42.99;;
81493;Laerm;70900;51.798;10.954;2024-02-16T01:22:12;31.19;25.44;43.14;;
81493;Laerm;70900;51.798;10.954;2024-02-16T01:24:37;31.55;25.80;44.76;;
81493;Laerm;70900;51.798;10.954;2024-02-16T01:27:03;30.83;24.86;41.09;;
81493;Laerm;70900;51.798;10.954;2024-02-16T01:29:28;28.40;24.44;36.47;;
81493;Laerm;70900;51.798;10.954;2024-02-16T01:31:54;32.48;24.65;47.82;;
81493;Laerm;70900;51.798;10.954;2024-02-16T01:34:19;32.44;24.70;40.80;;
81493;Laerm;70900;51.798;10.954;2024-02-16T01:36:44;35.15;24.92;47.75;;
81493;Laerm;70900;51.798;10.954;2024-02-16T01:39:10;33.44;24.95;46.17;;
81493;Laerm;70900;51.798;10.954;2024-02-16T01:41:38;25.71;23.90;40.28;;
81493;Laerm;70900;51.798;10.954;2024-02-16T01:44:03;33.70;25.25;50.81;;
81493;Laerm;70900;51.798;10.954;2024-02-16T01:46:29;29.90;24.60;42.66;;
81493;Laerm;70900;51.798;10.954;2024-02-16T01:48:54;32.72;24.42;49.13;;
81493;Laerm;70900;51.798;10.954;2024-02-16T01:51:21;31.63;25.29;41.10;;
81493;Laerm;70900;51.798;10.954;2024-02-16T01:53:48;31.90;24.89;44.26;;
81493;Laerm;70900;51.798;10.954;2024-02-16T01:56:13;29.14;24.95;40.16;;
81493;Laerm;70900;51.798;10.954;2024-02-16T01:58:38;32.02;25.90;41.79;;
81493;Laerm;70900;51.798;10.954;2024-02-16T02:01:04;30.10;24.61;43.09;;
81493;Laerm;70900;51.798;10.954;2024-02-16T02:03:29;28.83;23.95;38.18;;
81493;Laerm;70900;51.798;10.954;2024-02-16T02:05:55;28.66;25.11;36.27;;
81493;Laerm;70900;51.798;10.954;2024-02-16T02:08:21;31.46;26.06;38.70;;
81493;Laerm;70900;51.798;10.954;2024-02-16T02:10:46;29.75;25.14;37.24;;
81493;Laerm;70900;51.798;10.954;2024-02-16T02:13:12;30.61;26.17;45.02;;
81493;Laerm;70900;51.798;10.954;2024-02-16T02:15:37;32.57;27.22;48.26;;
81493;Laerm;70900;51.798;10.954;2024-02-16T02:18:03;30.25;26.39;38.55;;
81493;Laerm;70900;51.798;10.954;2024-02-16T02:20:28;34.67;25.15;53.78;;
81493;Laerm;70900;51.798;10.954;2024-02-16T02:22:53;32.89;26.93;42.63;;
81493;Laerm;70900;51.798;10.954;2024-02-16T02:25:19;46.90;25.41;63.68;;
81493;Laerm;70900;51.798;10.954;2024-02-16T02:27:44;33.30;25.71;44.16;;
81493;Laerm;70900;51.798;10.954;2024-02-16T02:30:10;33.26;26.66;44.62;;
81493;Laerm;70900;51.798;10.954;2024-02-16T02:32:36;41.85;26.63;61.81;;
81493;Laerm;70900;51.798;10.954;2024-02-16T02:35:02;35.70;25.35;46.98;;
81493;Laerm;70900;51.798;10.954;2024-02-16T02:37:29;34.61;26.50;44.03;;
81493;Laerm;70900;51.798;10.954;2024-02-16T02:39:55;32.35;26.07;41.70;;
81493;Laerm;70900;51.798;10.954;2024-02-16T02:42:20;28.42;25.53;42.55;;
81493;Laerm;70900;51.798;10.954;2024-02-16T02:44:45;31.14;26.05;42.04;;
81493;Laerm;70900;51.798;10.954;2024-02-16T02:47:18;32.12;27.29;41.20;;
81493;Laerm;70900;51.798;10.954;2024-02-16T02:49:43;31.81;26.79;47.06;;
81493;Laerm;70900;51.798;10.954;2024-02-16T02:52:09;32.51;27.70;43.45;;
81493;Laerm;70900;51.798;10.954;2024-02-16T02:54:34;44.23;29.63;55.74;;
81493;Laerm;70900;51.798;10.954;2024-02-16T02:57:00;34.19;29.00;48.27;;
81493;Laerm;70900;51.798;10.954;2024-02-16T02:59:27;29.58;26.65;39.23;;
81493;Laerm;70900;51.798;10.954;2024-02-16T03:01:52;31.47;27.13;39.72;;
81493;Laerm;70900;51.798;10.954;2024-02-16T03:04:17;30.05;26.95;38.28;;
81493;Laerm;70900;51.798;10.954;2024-02-16T03:06:43;29.45;26.69;40.97;;
81493;Laerm;70900;51.798;10.954;2024-02-16T03:09:10;31.55;27.38;49.67;;
81493;Laerm;70900;51.798;10.954;2024-02-16T03:11:35;32.62;27.49;39.54;;
81493;Laerm;70900;51.798;10.954;2024-02-16T03:14:01;36.25;32.24;45.40;;
81493;Laerm;70900;51.798;10.954;2024-02-16T03:16:26;35.26;30.12;43.11;;
81493;Laerm;70900;51.798;10.954;2024-02-16T03:18:52;32.25;28.38;39.24;;
81493;Laerm;70900;51.798;10.954;2024-02-16T03:21:17;34.56;30.09;41.81;;
81493;Laerm;70900;51.798;10.954;2024-02-16T03:23:43;34.75;30.15;44.54;;
81493;Laerm;70900;51.798;10.954;2024-02-16T03:26:14;34.98;29.82;50.96;;
81493;Laerm;70900;51.798;10.954;2024-02-16T03:28:40;34.92;30.82;40.64;;
81493;Laerm;70900;51.798;10.954;2024-02-16T03:31:06;48.74;30.63;65.54;;
81493;Laerm;70900;51.798;10.954;2024-02-16T03:33:33;35.41;31.75;44.03;;
81493;Laerm;70900;51.798;10.954;2024-02-16T03:35:58;38.27;33.07;56.27;;
81493;Laerm;70900;51.798;10.954;2024-02-16T03:38:25;38.33;30.89;53.62;;
81493;Laerm;70900;51.798;10.954;2024-02-16T03:40:50;44.05;32.76;74.37;;
81493;Laerm;70900;51.798;10.954;2024-02-16T03:43:15;38.26;32.35;49.05;;
81493;Laerm;70900;51.798;10.954;2024-02-16T03:45:41;37.59;31.06;48.26;;
81493;Laerm;70900;51.798;10.954;2024-02-16T03:48:06;35.62;30.85;47.77;;
81493;Laerm;70900;51.798;10.954;2024-02-16T03:50:32;38.53;33.01;54.92;;
81493;Laerm;70900;51.798;10.954;2024-02-16T03:52:57;37.85;31.99;57.18;;
81493;Laerm;70900;51.798;10.954;2024-02-16T03:55:22;38.82;32.42;55.33;;
81493;Laerm;70900;51.798;10.954;2024-02-16T03:57:48;37.34;32.59;47.22;;
81493;Laerm;70900;51.798;10.954;2024-02-16T04:00:13;41.13;31.77;54.32;;
81493;Laerm;70900;51.798;10.954;2024-02-16T04:02:39;38.40;34.28;50.59;;
81493;Laerm;70900;51.798;10.954;2024-02-16T04:05:05;37.99;32.57;55.26;;
81493;Laerm;70900;51.798;10.954;2024-02-16T04:07:30;36.63;33.34;48.76;;
81493;Laerm;70900;51.798;10.954;2024-02-16T04:09:56;38.31;33.68;43.96;;
81493;Laerm;70900;51.798;10.954;2024-02-16T04:12:21;36.62;31.77;53.92;;
81493;Laerm;70900;51.798;10.954;2024-02-16T04:14:46;36.72;31.53;48.80;;
81493;Laerm;70900;51.798;10.954;2024-02-16T04:17:12;46.57;33.31;62.88;;
81493;Laerm;70900;51.798;10.954;2024-02-16T04:19:37;48.04;33.31;63.78;;
81493;Laerm;70900;51.798;10.954;2024-02-16T04:22:03;36.19;31.67;41.52;;
81493;Laerm;70900;51.798;10.954;2024-02-16T04:24:28;46.82;32.97;69.65;;
81493;Laerm;70900;51.798;10.954;2024-02-16T04:26:54;52.33;36.33;70.95;;
81493;Laerm;70900;51.798;10.954;2024-02-16T04:29:19;47.51;36.26;63.58;;
81493;Laerm;70900;51.798;10.954;2024-02-16T04:31:44;38.58;34.48;43.95;;
81493;Laerm;70900;51.798;10.954;2024-02-16T04:34:11;41.81;35.06;63.63;;
81493;Laerm;70900;51.798;10.954;2024-02-16T04:36:37;48.44;33.45;65.06;;
81493;Laerm;70900;51.798;10.954;2024-02-16T04:39:02;49.71;33.59;64.53;;
81493;Laerm;70900;51.798;10.954;2024-02-16T04:41:28;37.54;33.62;51.67;;
81493;Laerm;70900;51.798;10.954;2024-02-16T04:43:54;50.36;34.41;67.43;;
81493;Laerm;70900;51.798;10.954;2024-02-16T04:46:19;38.69;32.88;48.38;;
81493;Laerm;70900;51.798;10.954;2024-02-16T04:48:45;53.41;32.15;71.44;;
81493;Laerm;70900;51.798;10.954;2024-02-16T04:51:11;36.58;32.49;44.38;;
81493;Laerm;70900;51.798;10.954;2024-02-16T04:53:36;38.46;33.34;54.25;;
81493;Laerm;70900;51.798;10.954;2024-02-16T04:56:02;51.36;32.70;66.70;;
81493;Laerm;70900;51.798;10.954;2024-02-16T04:58:27;50.44;33.82;63.93;;
81493;Laerm;70900;51.798;10.954;2024-02-16T05:00:53;51.68;33.85;79.17;;
81493;Laerm;70900;51.798;10.954;2024-02-16T05:03:18;50.47;39.96;63.45;;
81493;Laerm;70900;51.798;10.954;2024-02-16T05:05:43;49.83;34.55;65.73;;
81493;Laerm;70900;51.798;10.954;2024-02-16T05:08:09;43.00;36.54;64.37;;
81493;Laerm;70900;51.798;10.954;2024-02-16T05:10:34;39.64;36.07;53.18;;
81493;Laerm;70900;51.798;10.954;2024-02-16T05:13:00;49.49;36.51;65.66;;
81493;Laerm;70900;51.798;10.954;2024-02-16T05:15:25;53.04;37.24;67.71;;
81493;Laerm;70900;51.798;10.954;2024-02-16T05:17:51;49.13;38.15;66.52;;
81493;Laerm;70900;51.798;10.954;2024-02-16T05:20:16;51.25;37.65;64.60;;
81493;Laerm;70900;51.798;10.954;2024-02-16T05:22:42;42.29;37.60;55.38;;
81493;Laerm;70900;51.798;10.954;2024-02-16T05:25:08;49.46;39.62;64.06;;
81493;Laerm;70900;51.798;10.954;2024-02-16T05:27:34;52.86;38.81;68.30;;
81493;Laerm;70900;51.798;10.954;2024-02-16T05:30:00;56.34;39.30;68.98;;
81493;Laerm;70900;51.798;10.954;2024-02-16T05:32:25;46.84;38.81;62.82;;
81493;Laerm;70900;51.798;10.954;2024-02-16T05:34:51;56.02;38.52;69.98;;
81493;Laerm;70900;51.798;10.954;2024-02-16T05:37:16;56.22;40.59;67.90;;
81493;Laerm;70900;51.798;10.954;2024-02-16T05:39:42;48.19;39.08;63.51;;
81493;Laerm;70900;51.798;10.954;2024-02-16T05:42:22;52.60;38.22;67.51;;
81493;Laerm;70900;51.798;10.954;2024-02-16T05:44:48;54.12;38.64;69.60;;
81493;Laerm;70900;51.798;10.954;2024-02-16T05:47:14;53.66;39.79;70.48;;
81493;Laerm;70900;51.798;10.954;2024-02-16T05:49:39;55.64;39.37;68.67;;
81493;Laerm;70900;51.798;10.954;2024-02-16T05:52:05;56.69;38.93;70.34;;
81493;Laerm;70900;51.798;10.954;2024-02-16T05:54:43;53.15;39.15;66.61;;
81493;Laerm;70900;51.798;10.954;2024-02-16T05:57:08;56.48;40.89;71.48;;
81493;Laerm;70900;51.798;10.954;2024-02-16T05:59:34;52.93;39.48;72.66;;
81493;Laerm;70900;51.798;10.954;2024-02-16T06:02:00;47.45;38.88;60.43;;
81493;Laerm;70900;51.798;10.954;2024-02-16T06:04:25;51.91;39.59;65.46;;
81493;Laerm;70900;51.798;10.954;2024-02-16T06:06:51;56.10;39.65;68.09;;
81493;Laerm;70900;51.798;10.954;2024-02-16T06:09:19;57.18;38.57;69.47;;
81493;Laerm;70900;51.798;10.954;2024-02-16T06:11:44;51.96;38.85;67.70;;
81493;Laerm;70900;51.798;10.954;2024-02-16T06:14:09;52.67;38.28;63.16;;
81493;Laerm;70900;51.798;10.954;2024-02-16T06:16:35;56.96;38.68;69.94;;
81493;Laerm;70900;51.798;10.954;2024-02-16T06:19:00;57.41;42.08;66.28;;
81493;Laerm;70900;51.798;10.954;2024-02-16T06:21:25;58.19;40.12;77.16;;
81493;Laerm;70900;51.798;10.954;2024-02-16T06:23:51;60.74;40.48;75.56;;
81493;Laerm;70900;51.798;10.954;2024-02-16T06:26:16;54.40;41.07;71.06;;
81493;Laerm;70900;51.798;10.954;2024-02-16T06:28:41;56.14;40.99;67.79;;
81493;Laerm;70900;51.798;10.954;2024-02-16T06:31:07;56.46;42.87;69.64;;
81493;Laerm;70900;51.798;10.954;2024-02-16T06:33:32;57.18;40.75;70.47;;
81493;Laerm;70900;51.798;10.954;2024-02-16T06:35:57;61.19;40.07;77.82;;
81493;Laerm;70900;51.798;10.954;2024-02-16T06:38:23;54.89;42.10;67.71;;
81493;Laerm;70900;51.798;10.954;2024-02-16T06:40:48;54.40;42.28;66.45;;
81493;Laerm;70900;51.798;10.954;2024-02-16T06:43:14;54.74;41.02;68.02;;
81493;Laerm;70900;51.798;10.954;2024-02-16T06:45:39;62.10;39.49;81.98;;
81493;Laerm;70900;51.798;10.954;2024-02-16T06:48:05;54.37;40.33;68.60;;
81493;Laerm;70900;51.798;10.954;2024-02-16T06:50:30;53.02;39.88;64.62;;
81493;Laerm;70900;51.798;10.954;2024-02-16T06:52:56;53.74;39.28;67.47;;
81493;Laerm;70900;51.798;10.954;2024-02-16T06:55:21;54.72;39.99;66.77;;
81493;Laerm;70900;51.798;10.954;2024-02-16T06:57:46;54.77;38.79;69.44;;
81493;Laerm;70900;51.798;10.954;2024-02-16T07:00:12;50.43;38.67;66.32;;
81493;Laerm;70900;51.798;10.954;2024-02-16T07:02:38;53.30;38.50;67.76;;
81493;Laerm;70900;51.798;10.954;2024-02-16T07:05:04;56.74;38.82;72.93;;
81493;Laerm;70900;51.798;10.954;2024-02-16T07:07:29;39.96;36.02;57.00;;
81493;Laerm;70900;51.798;10.954;2024-02-16T07:09:54;43.25;35.27;55.04;;
81493;Laerm;70900;51.798;10.954;2024-02-16T07:12:20;55.19;36.47;69.43;;
81493;Laerm;70900;51.798;10.954;2024-02-16T07:14:46;61.95;39.08;79.65;;
81493;Laerm;70900;51.798;10.954;2024-02-16T07:17:15;55.79;37.43;68.80;;
81493;Laerm;70900;51.798;10.954;2024-02-16T07:19:40;57.45;37.20;70.91;;
81493;Laerm;70900;51.798;10.954;2024-02-16T07:22:06;57.15;36.21;69.16;;
81493;Laerm;70900;51.798;10.954;2024-02-16T07:24:35;51.01;36.54;64.25;;
81493;Laerm;70900;51.798;10.954;2024-02-16T07:27:00;50.17;35.27;64.41;;
81493;Laerm;70900;51.798;10.954;2024-02-16T07:29:27;56.97;37.69;75.62;;
81493;Laerm;70900;51.798;10.954;2024-02-16T07:31:53;56.07;36.63;69.68;;
81493;Laerm;70900;51.798;10.954;2024-02-16T07:34:19;60.81;41.20;77.19;;
81493;Laerm;70900;51.798;10.954;2024-02-16T07:36:44;51.18;36.47;64.07;;
81493;Laerm;70900;51.798;10.954;2024-02-16T07:39:10;55.00;35.15;71.71;;
81493;Laerm;70900;51.798;10.954;2024-02-16T07:41:37;56.47;36.77;71.53;;
81493;Laerm;70900;51.798;10.954;2024-02-16T07:44:02;56.17;37.64;70.44;;
81493;Laerm;70900;51.798;10.954;2024-02-16T07:46:28;45.50;36.56;60.93;;
81493;Laerm;70900;51.798;10.954;2024-02-16T07:48:53;49.56;36.58;64.22;;
81493;Laerm;70900;51.798;10.954;2024-02-16T07:51:18;57.31;36.42;67.64;;
81493;Laerm;70900;51.798;10.954;2024-02-16T07:53:44;50.38;34.69;66.92;;
81493;Laerm;70900;51.798;10.954;2024-02-16T07:56:11;54.67;39.57;65.47;;
81493;Laerm;70900;51.798;10.954;2024-02-16T07:58:37;58.01;39.85;70.42;;
81493;Laerm;70900;51.798;10.954;2024-02-16T08:01:02;52.66;38.18;66.52;;
81493;Laerm;70900;51.798;10.954;2024-02-16T08:03:27;53.98;36.32;68.73;;
81493;Laerm;70900;51.798;10.954;2024-02-16T08:05:55;55.35;39.64;66.86;;
81493;Laerm;70900;51.798;10.954;2024-02-16T08:08:21;49.60;39.31;64.41;;
81493;Laerm;70900;51.798;10.954;2024-02-16T08:10:48;56.62;36.66;70.15;;
81493;Laerm;70900;51.798;10.954;2024-02-16T08:13:13;54.97;38.21;67.90;;
81493;Laerm;70900;51.798;10.954;2024-02-16T08:15:38;51.26;36.51;66.71;;
81493;Laerm;70900;51.798;10.954;2024-02-16T08:18:04;54.66;37.43;68.63;;
81493;Laerm;70900;51.798;10.954;2024-02-16T08:20:30;52.16;37.72;70.12;;
81493;Laerm;70900;51.798;10.954;2024-02-16T08:22:56;60.62;38.53;76.99;;
81493;Laerm;70900;51.798;10.954;2024-02-16T08:25:21;50.51;37.08;67.73;;
81493;Laerm;70900;51.798;10.954;2024-02-16T08:27:47;55.21;36.84;68.81;;
81493;Laerm;70900;51.798;10.954;2024-02-16T08:30:14;55.20;37.66;67.63;;
81493;Laerm;70900;51.798;10.954;2024-02-16T08:32:39;52.00;36.72;67.30;;
81493;Laerm;70900;51.798;10.954;2024-02-16T08:35:05;58.57;37.91;75.93;;
81493;Laerm;70900;51.798;10.954;2024-02-16T08:37:30;55.39;36.37;70.65;;
81493;Laerm;70900;51.798;10.954;2024-02-16T08:39:56;58.44;40.58;71.20;;
81493;Laerm;70900;51.798;10.954;2024-02-16T08:42:21;56.77;39.10;72.72;;
81493;Laerm;70900;51.798;10.954;2024-02-16T08:44:48;56.42;38.75;72.44;;
81493;Laerm;70900;51.798;10.954;2024-02-16T08:47:13;58.94;41.34;73.00;;
81493;Laerm;70900;51.798;10.954;2024-02-16T08:49:39;55.74;37.65;67.26;;
81493;Laerm;70900;51.798;10.954;2024-02-16T08:52:06;54.59;38.16;65.23;;
81493;Laerm;70900;51.798;10.954;2024-02-16T08:54:31;55.21;37.70;70.21;;
81493;Laerm;70900;51.798;10.954;2024-02-16T08:56:56;57.53;37.27;70.47;;
81493;Laerm;70900;51.798;10.954;2024-02-16T08:59:22;56.88;38.37;71.03;;
81493;Laerm;70900;51.798;10.954;2024-02-16T09:01:47;53.95;36.48;65.21;;
81493;Laerm;70900;51.798;10.954;2024-02-16T09:04:13;57.41;40.91;70.33;;
81493;Laerm;70900;51.798;10.954;2024-02-16T09:06:38;49.16;36.60;65.17;;
81493;Laerm;70900;51.798;10.954;2024-02-16T09:09:04;63.84;38.30;81.03;;
81493;Laerm;70900;51.798;10.954;2024-02-16T09:11:29;51.39;36.48;65.00;;
81493;Laerm;70900;51.798;10.954;2024-02-16T09:13:55;56.62;37.06;68.14;;
81493;Laerm;70900;51.798;10.954;2024-02-16T09:16:20;55.41;38.23;68.31;;
81493;Laerm;70900;51.798;10.954;2024-02-16T09:18:45;52.93;37.15;67.52;;
81493;Laerm;70900;51.798;10.954;2024-02-16T09:21:13;55.81;38.43;65.85;;
81493;Laerm;70900;51.798;10.954;2024-02-16T09:23:39;57.26;38.40;71.14;;
81493;Laerm;70900;51.798;10.954;2024-02-16T09:26:04;53.98;38.77;69.16;;
81493;Laerm;70900;51.798;10.954;2024-02-16T09:28:30;55.34;38.50;66.15;;
81493;Laerm;70900;51.798;10.954;2024-02-16T09:30:55;55.78;38.52;71.10;;
81493;Laerm;70900;51.798;10.954;2024-02-16T09:33:21;54.33;36.52;71.51;;
81493;Laerm;70900;51.798;10.954;2024-02-16T09:35:50;54.79;38.00;69.52;;
81493;Laerm;70900;51.798;10.954;2024-02-16T09:38:15;56.92;39.35;69.84;;
81493;Laerm;70900;51.798;10.954;2024-02-16T09:40:41;51.61;38.46;64.79;;
81493;Laerm;70900;51.798;10.954;2024-02-16T09:43:06;58.48;40.45;68.27;;
81493;Laerm;70900;51.798;10.954;2024-02-16T09:45:32;53.62;38.96;64.70;;
81493;Laerm;70900;51.798;10.954;2024-02-16T09:47:57;54.82;39.31;67.20;;
81493;Laerm;70900;51.798;10.954;2024-02-16T09:50:23;55.27;38.11;74.28;;
81493;Laerm;70900;51.798;10.954;2024-02-16T09:52:49;52.67;38.72;65.81;;
81493;Laerm;70900;51.798;10.954;2024-02-16T09:55:15;55.35;41.90;67.49;;
81493;Laerm;70900;51.798;10.954;2024-02-16T09:57:41;56.40;39.33;73.82;;
81493;Laerm;70900;51.798;10.954;2024-02-16T10:00:07;53.23;39.64;67.19;;
81493;Laerm;70900;51.798;10.954;2024-02-16T10:02:43;52.19;38.45;66.66;;
81493;Laerm;70900;51.798;10.954;2024-02-16T10:05:30;48.64;38.58;64.52;;
81493;Laerm;70900;51.798;10.954;2024-02-16T10:07:55;57.63;40.17;71.76;;
81493;Laerm;70900;51.798;10.954;2024-02-16T10:10:27;57.01;39.32;69.83;;
81493;Laerm;70900;51.798;10.954;2024-02-16T10:13:01;55.91;39.77;68.09;;
81493;Laerm;70900;51.798;10.954;2024-02-16T10:15:29;56.11;41.14;68.86;;
81493;Laerm;70900;51.798;10.954;2024-02-16T10:18:12;58.39;40.28;70.16;;
81493;Laerm;70900;51.798;10.954;2024-02-16T10:20:38;59.03;40.35;76.37;;
81493;Laerm;70900;51.798;10.954;2024-02-16T10:23:05;56.33;42.53;69.75;;
81493;Laerm;70900;51.798;10.954;2024-02-16T10:25:31;53.48;39.84;65.24;;
81493;Laerm;70900;51.798;10.954;2024-02-16T10:27:57;56.78;39.91;69.31;;
81493;Laerm;70900;51.798;10.954;2024-02-16T10:30:24;55.44;39.39;67.09;;
81493;Laerm;70900;51.798;10.954;2024-02-16T10:32:51;60.50;39.33;77.43;;
81493;Laerm;70900;51.798;10.954;2024-02-16T10:35:16;59.09;41.03;74.74;;
81493;Laerm;70900;51.798;10.954;2024-02-16T10:37:43;57.75;38.95;73.23;;
81493;Laerm;70900;51.798;10.954;2024-02-16T10:40:09;52.68;38.75;66.99;;
81493;Laerm;70900;51.798;10.954;2024-02-16T10:42:38;55.94;40.49;70.19;;
81493;Laerm;70900;51.798;10.954;2024-02-16T10:45:05;61.67;41.61;80.23;;
81493;Laerm;70900;51.798;10.954;2024-02-16T10:47:31;56.32;41.26;68.14;;
81493;Laerm;70900;51.798;10.954;2024-02-16T10:49:56;59.08;42.03;76.57;;
81493;Laerm;70900;51.798;10.954;2024-02-16T10:52:22;51.69;40.95;67.06;;
81493;Laerm;70900;51.798;10.954;2024-02-16T10:54:47;51.55;39.51;64.65;;
81493;Laerm;70900;51.798;10.954;2024-02-16T10:57:13;53.35;40.24;67.92;;
81493;Laerm;70900;51.798;10.954;2024-02-16T10:59:42;57.17;41.95;70.93;;
81493;Laerm;70900;51.798;10.954;2024-02-16T11:02:08;53.91;39.96;69.43;;
81493;Laerm;70900;51.798;10.954;2024-02-16T11:04:38;55.87;40.88;74.98;;
81493;Laerm;70900;51.798;10.954;2024-02-16T11:07:16;50.87;39.12;68.11;;
81493;Laerm;70900;51.798;10.954;2024-02-16T11:09:43;54.37;38.22;68.20;;
81493;Laerm;70900;51.798;10.954;2024-02-16T11:12:08;56.36;40.35;67.70;;
81493;Laerm;70900;51.798;10.954;2024-02-16T11:14:34;54.22;40.85;68.68;;
81493;Laerm;70900;51.798;10.954;2024-02-16T11:17:01;55.11;40.51;76.61;;
81493;Laerm;70900;51.798;10.954;2024-02-16T11:19:26;53.31;39.31;66.13;;
81493;Laerm;70900;51.798;10.954;2024-02-16T11:21:58;56.28;40.23;67.22;;
81493;Laerm;70900;51.798;10.954;2024-02-16T11:24:30;55.72;39.92;67.68;;
81493;Laerm;70900;51.798;10.954;2024-02-16T11:26:56;56.50;39.64;70.72;;
81493;Laerm;70900;51.798;10.954;2024-02-16T11:29:22;54.28;40.86;67.03;;
81493;Laerm;70900;51.798;10.954;2024-02-16T11:31:47;54.29;40.39;67.11;;
81493;Laerm;70900;51.798;10.954;2024-02-16T11:34:25;58.94;39.85;73.78;;
81493;Laerm;70900;51.798;10.954;2024-02-16T11:36:57;52.76;39.82;66.87;;
81493;Laerm;70900;51.798;10.954;2024-02-16T11:39:23;56.83;40.58;69.70;;
81493;Laerm;70900;51.798;10.954;2024-02-16T11:41:58;59.46;41.52;75.71;;
81493;Laerm;70900;51.798;10.954;2024-02-16T11:44:23;55.13;41.48;68.75;;
81493;Laerm;70900;51.798;10.954;2024-02-16T11:46:53;50.34;40.73;70.75;;
81493;Laerm;70900;51.798;10.954;2024-02-16T11:49:18;52.65;40.28;64.62;;
81493;Laerm;70900;51.798;10.954;2024-02-16T11:51:43;57.40;42.14;70.38;;
81493;Laerm;70900;51.798;10.954;2024-02-16T11:54:09;51.92;39.47;65.72;;
81493;Laerm;70900;51.798;10.954;2024-02-16T11:56:34;55.90;39.79;70.40;;
81493;Laerm;70900;51.798;10.954;2024-02-16T11:59:00;57.42;40.97;75.46;;
81493;Laerm;70900;51.798;10.954;2024-02-16T12:01:26;55.24;39.46;67.49;;
81493;Laerm;70900;51.798;10.954;2024-02-16T12:03:51;56.06;42.45;72.55;;
81493;Laerm;70900;51.798;10.954;2024-02-16T12:06:20;53.21;36.51;64.76;;
81493;Laerm;70900;51.798;10.954;2024-02-16T12:08:46;52.19;36.04;64.92;;
81493;Laerm;70900;51.798;10.954;2024-02-16T12:11:12;53.92;37.59;70.13;;
81493;Laerm;70900;51.798;10.954;2024-02-16T12:13:37;51.79;37.74;65.76;;
81493;Laerm;70900;51.798;10.954;2024-02-16T12:16:02;55.48;38.59;70.53;;
81493;Laerm;70900;51.798;10.954;2024-02-16T12:18:28;53.31;37.25;66.39;;
81493;Laerm;70900;51.798;10.954;2024-02-16T12:20:58;52.97;36.86;66.30;;
81493;Laerm;70900;51.798;10.954;2024-02-16T12:23:23;57.40;37.68;69.44;;
81493;Laerm;70900;51.798;10.954;2024-02-16T12:25:48;49.59;36.73;65.87;;
81493;Laerm;70900;51.798;10.954;2024-02-16T12:28:14;51.21;35.82;68.53;;
81493;Laerm;70900;51.798;10.954;2024-02-16T12:30:39;60.26;36.96;78.09;;
81493;Laerm;70900;51.798;10.954;2024-02-16T12:33:05;60.60;37.22;76.10;;
81493;Laerm;70900;51.798;10.954;2024-02-16T12:35:30;64.24;37.69;82.94;;
81493;Laerm;70900;51.798;10.954;2024-02-16T12:37:56;54.74;39.08;73.75;;
81493;Laerm;70900;51.798;10.954;2024-02-16T12:40:21;51.04;38.18;63.73;;
81493;Laerm;70900;51.798;10.954;2024-02-16T12:42:47;55.06;41.68;65.24;;
81493;Laerm;70900;51.798;10.954;2024-02-16T12:45:13;61.15;39.80;79.62;;
81493;Laerm;70900;51.798;10.954;2024-02-16T12:47:38;59.51;41.39;76.86;;
81493;Laerm;70900;51.798;10.954;2024-02-16T12:50:04;58.05;44.88;69.95;;
81493;Laerm;70900;51.798;10.954;2024-02-16T12:52:29;58.99;40.37;73.68;;
81493;Laerm;70900;51.798;10.954;2024-02-16T12:54:56;55.46;38.61;73.50;;
81493;Laerm;70900;51.798;10.954;2024-02-16T12:57:23;57.56;39.12;75.50;;
81493;Laerm;70900;51.798;10.954;2024-02-16T12:59:48;55.59;41.45;68.18;;
81493;Laerm;70900;51.798;10.954;2024-02-16T13:02:14;53.23;38.92;65.56;;
81493;Laerm;70900;51.798;10.954;2024-02-16T13:04:39;51.78;37.88;64.61;;
81493;Laerm;70900;51.798;10.954;2024-02-16T13:07:05;53.47;37.85;66.32;;
81493;Laerm;70900;51.798;10.954;2024-02-16T13:09:30;55.05;37.98;65.79;;
81493;Laerm;70900;51.798;10.954;2024-02-16T13:11:56;56.81;38.80;71.53;;
81493;Laerm;70900;51.798;10.954;2024-02-16T13:14:21;54.40;39.14;69.03;;
81493;Laerm;70900;51.798;10.954;2024-02-16T13:16:47;56.90;38.30;68.09;;
81493;Laerm;70900;51.798;10.954;2024-02-16T13:19:12;51.18;37.46;67.78;;
81493;Laerm;70900;51.798;10.954;2024-02-16T13:21:38;55.00;36.18;66.53;;
81493;Laerm;70900;51.798;10.954;2024-02-16T13:24:03;53.14;36.97;64.92;;
81493;Laerm;70900;51.798;10.954;2024-02-16T13:26:29;52.11;35.89;64.89;;